Time;durP1;ratioP1;P1;durP2;ratioP2;P2;SDS_P1;SDS_P2;PMS_P1;PMS_P2;Temp;Humidity;BMP_temperature;BMP_pressure;BME280_temperature;BME280_humidity;BME280_pressure;Samples;Min_cycle;Max_cycle;Signal;HPM_P1;HPM_P2
2023/12/26 00:00:58;;;;;;;0.43;0.30;;;14.20;99.90;;;;;;4993334;28;20176;-63
2023/12/26 00:03:23;;;;;;;0.30;0.10;;;14.20;99.90;;;;;;5006727;28;20203;-63
2023/12/26 00:05:49;;;;;;;0.32;0.10;;;14.20;99.90;;;;;;4997082;28;20315;-63
2023/12/26 00:08:14;;;;;;;0.20;0.17;;;14.20;99.90;;;;;;5012996;28;20178;-63
2023/12/26 00:10:40;;;;;;;0.20;0.20;;;14.20;99.90;;;;;;4996664;28;20175;-63
2023/12/26 00:13:06;;;;;;;0.20;0.20;;;14.20;99.90;;;;;;5012734;28;20171;-63
2023/12/26 00:15:34;;;;;;;0.52;0.20;;;14.20;99.90;;;;;;5007578;28;20290;-63
2023/12/26 00:17:59;;;;;;;0.40;0.20;;;14.20;99.90;;;;;;4996324;28;20197;-62
2023/12/26 00:20:27;;;;;;;0.10;0.10;;;14.20;99.90;;;;;;4997352;28;20486;-64
2023/12/26 00:22:53;;;;;;;0.65;0.30;;;14.30;99.90;;;;;;5012921;28;20202;-62
2023/12/26 00:25:21;;;;;;;0.25;0.20;;;14.30;99.90;;;;;;5012697;28;20207;-63
2023/12/26 00:27:49;;;;;;;0.10;0.10;;;14.30;99.90;;;;;;5012693;28;20203;-63
2023/12/26 00:30:15;;;;;;;0.30;0.30;;;14.30;99.90;;;;;;5012678;28;20206;-62
2023/12/26 00:32:41;;;;;;;0.20;0.20;;;14.30;99.90;;;;;;5006210;28;20204;-62
2023/12/26 00:35:06;;;;;;;0.30;0.20;;;14.30;99.90;;;;;;5012285;28;20172;-63
2023/12/26 00:37:35;;;;;;;0.38;0.20;;;14.30;99.90;;;;;;5012530;28;20183;-63
2023/12/26 00:40:03;;;;;;;0.32;0.30;;;14.30;99.90;;;;;;4996325;28;20175;-63
2023/12/26 00:42:29;;;;;;;0.20;0.10;;;14.30;99.90;;;;;;4996244;28;20218;-63
2023/12/26 00:44:55;;;;;;;0.32;0.20;;;14.30;99.90;;;;;;4996009;28;20458;-63
2023/12/26 00:47:22;;;;;;;0.08;0.08;;;14.30;99.90;;;;;;4996052;28;20175;-63
2023/12/26 00:49:48;;;;;;;0.17;0.10;;;14.30;99.90;;;;;;4992091;28;20283;-63
2023/12/26 00:52:14;;;;;;;0.10;0.10;;;14.30;99.90;;;;;;4992666;28;20266;-63
2023/12/26 00:54:39;;;;;;;0.00;0.00;;;14.30;99.90;;;;;;4992771;28;20172;-63
2023/12/26 00:57:07;;;;;;;0.20;0.20;;;14.30;99.90;;;;;;5004221;28;20179;-63
2023/12/26 00:59:35;;;;;;;0.20;0.20;;;14.30;99.90;;;;;;4995516;28;20180;-63
2023/12/26 01:02:04;;;;;;;0.10;0.10;;;14.20;99.90;;;;;;4995673;28;20207;-63
2023/12/26 01:04:30;;;;;;;0.20;0.20;;;14.20;99.90;;;;;;4995067;28;20454;-63
2023/12/26 01:06:55;;;;;;;0.20;0.10;;;14.20;99.90;;;;;;4994585;28;20175;-62
2023/12/26 01:09:23;;;;;;;0.50;0.30;;;14.20;99.90;;;;;;4991929;28;20204;-63
2023/12/26 01:11:49;;;;;;;0.98;0.20;;;14.20;99.90;;;;;;5011027;28;20171;-63
2023/12/26 01:14:14;;;;;;;0.20;0.20;;;14.10;99.90;;;;;;4995379;28;20187;-63
2023/12/26 01:16:43;;;;;;;0.40;0.20;;;14.10;99.90;;;;;;4996555;28;20222;-63
2023/12/26 01:19:09;;;;;;;0.63;0.30;;;14.10;99.90;;;;;;5011961;28;20265;-63
2023/12/26 01:21:35;;;;;;;1.15;0.40;;;14.10;99.90;;;;;;5011549;28;20179;-63
2023/12/26 01:24:03;;;;;;;1.05;0.43;;;14.00;99.90;;;;;;4995624;28;20186;-63
2023/12/26 01:26:30;;;;;;;0.30;0.30;;;14.00;99.90;;;;;;4999869;28;20186;-63
2023/12/26 01:28:58;;;;;;;0.77;0.60;;;14.00;99.90;;;;;;4995120;28;20282;-63
2023/12/26 01:31:24;;;;;;;1.15;0.50;;;14.00;99.90;;;;;;4995083;28;20199;-63
2023/12/26 01:33:57;;;;;;;0.80;0.50;;;13.90;99.90;;;;;;4995103;28;20171;-66
2023/12/26 01:36:22;;;;;;;0.40;0.35;;;13.90;99.90;;;;;;4995315;28;20195;-63
2023/12/26 01:38:50;;;;;;;0.35;0.30;;;13.90;99.90;;;;;;5011704;28;20183;-64
2023/12/26 01:41:16;;;;;;;0.60;0.47;;;13.80;99.90;;;;;;5011626;28;20261;-63
2023/12/26 01:43:42;;;;;;;0.73;0.50;;;13.80;99.90;;;;;;5011559;28;20214;-64
2023/12/26 01:46:12;;;;;;;0.43;0.40;;;13.80;99.90;;;;;;5009836;28;20194;-63
2023/12/26 01:48:38;;;;;;;0.80;0.25;;;13.80;99.90;;;;;;5011307;28;20246;-63
2023/12/26 01:51:08;;;;;;;0.30;0.30;;;13.80;99.90;;;;;;4995012;28;20190;-64
2023/12/26 01:53:38;;;;;;;0.28;0.28;;;13.70;99.90;;;;;;4994932;28;20202;-64
2023/12/26 01:56:14;;;;;;;0.30;0.30;;;13.70;99.90;;;;;;4994840;28;20186;-64
2023/12/26 01:58:42;;;;;;;0.95;0.40;;;13.70;99.90;;;;;;4994879;28;20171;-62
2023/12/26 02:01:11;;;;;;;2.05;0.50;;;13.60;99.90;;;;;;4994938;28;20270;-65
2023/12/26 02:03:37;;;;;;;0.40;0.30;;;13.60;99.90;;;;;;4992732;28;20261;-64
2023/12/26 02:06:05;;;;;;;0.52;0.38;;;13.60;99.90;;;;;;4994559;28;20274;-65
2023/12/26 02:08:30;;;;;;;0.28;0.20;;;13.60;99.90;;;;;;5011056;28;20228;-63
2023/12/26 02:10:56;;;;;;;2.58;0.50;;;13.50;99.90;;;;;;5011027;28;20372;-62
2023/12/26 02:13:22;;;;;;;0.30;0.28;;;13.50;99.90;;;;;;4994813;28;20175;-63
2023/12/26 02:15:50;;;;;;;0.55;0.30;;;13.50;99.90;;;;;;4994548;28;20222;-65
2023/12/26 02:18:16;;;;;;;0.93;0.30;;;13.50;99.90;;;;;;4997874;28;20222;-64
2023/12/26 02:20:41;;;;;;;1.58;0.40;;;13.50;99.90;;;;;;4995439;28;20342;-64
2023/12/26 02:23:07;;;;;;;0.75;0.40;;;13.40;99.90;;;;;;4995101;28;20195;-64
2023/12/26 02:25:33;;;;;;;0.73;0.32;;;13.40;99.90;;;;;;4999659;28;20182;-64
2023/12/26 02:28:01;;;;;;;1.30;0.40;;;13.40;99.90;;;;;;4998885;28;20499;-64
2023/12/26 02:30:28;;;;;;;1.05;0.30;;;13.40;99.90;;;;;;5014387;28;20251;-64
2023/12/26 02:32:55;;;;;;;0.20;0.15;;;13.40;99.90;;;;;;5018308;28;20174;-64
2023/12/26 02:35:24;;;;;;;1.50;0.30;;;13.30;99.90;;;;;;5017935;28;20210;-65
2023/12/26 02:37:50;;;;;;;0.50;0.28;;;13.30;99.90;;;;;;4998590;28;20179;-63
2023/12/26 02:40:19;;;;;;;0.63;0.30;;;13.30;99.90;;;;;;5011956;28;20183;-65
2023/12/26 02:42:44;;;;;;;0.40;0.40;;;13.30;99.90;;;;;;4998429;28;20186;-64
2023/12/26 02:45:10;;;;;;;0.60;0.30;;;13.20;99.90;;;;;;4998048;28;20190;-65
2023/12/26 02:47:40;;;;;;;0.60;0.30;;;13.30;99.90;;;;;;4998258;28;20243;-64
2023/12/26 02:50:07;;;;;;;0.93;0.35;;;13.20;99.90;;;;;;4998062;28;20195;-64
2023/12/26 02:52:35;;;;;;;0.60;0.30;;;13.20;99.90;;;;;;5014447;28;20207;-64
2023/12/26 02:55:03;;;;;;;0.50;0.30;;;13.20;99.90;;;;;;4998362;28;20171;-63
2023/12/26 02:57:28;;;;;;;0.98;0.30;;;13.20;99.90;;;;;;4994260;28;20172;-63
2023/12/26 02:59:54;;;;;;;0.50;0.30;;;13.20;99.90;;;;;;4990250;28;20233;-64
2023/12/26 03:02:22;;;;;;;0.47;0.25;;;13.20;99.90;;;;;;4997872;28;20179;-63
2023/12/26 03:04:47;;;;;;;0.25;0.20;;;13.20;99.90;;;;;;4997957;28;20195;-63
2023/12/26 03:07:13;;;;;;;0.75;0.40;;;13.20;99.90;;;;;;4997875;28;20174;-64
2023/12/26 03:09:41;;;;;;;0.20;0.20;;;13.10;99.90;;;;;;4997535;28;20222;-64
2023/12/26 03:12:06;;;;;;;0.68;0.30;;;13.10;99.90;;;;;;4997705;28;20167;-64
2023/12/26 03:14:34;;;;;;;0.70;0.40;;;13.10;99.90;;;;;;4997537;28;20182;-63
2023/12/26 03:17:03;;;;;;;0.60;0.30;;;13.10;99.90;;;;;;4997285;28;20230;-64
2023/12/26 03:19:33;;;;;;;0.25;0.25;;;13.10;99.90;;;;;;4997570;28;20175;-63
2023/12/26 03:22:01;;;;;;;0.50;0.30;;;13.10;99.90;;;;;;4997542;28;20203;-64
2023/12/26 03:24:27;;;;;;;0.10;0.10;;;13.10;99.90;;;;;;4997689;28;20179;-64
2023/12/26 03:26:55;;;;;;;0.43;0.30;;;13.10;99.90;;;;;;4997422;28;20183;-65
2023/12/26 03:29:20;;;;;;;0.60;0.38;;;13.00;99.90;;;;;;4996129;28;20199;-62
2023/12/26 03:31:46;;;;;;;0.20;0.20;;;13.00;99.90;;;;;;4997582;28;20171;-63
2023/12/26 03:34:12;;;;;;;0.20;0.20;;;13.00;99.90;;;;;;5009253;28;20195;-64
2023/12/26 03:36:45;;;;;;;0.30;0.20;;;12.90;99.90;;;;;;4997479;28;20198;-64
2023/12/26 03:39:13;;;;;;;0.52;0.20;;;12.80;99.90;;;;;;4996937;28;20229;-64
2023/12/26 03:41:39;;;;;;;0.68;0.35;;;12.70;99.90;;;;;;4996938;28;20214;-66
2023/12/26 03:44:09;;;;;;;0.82;0.20;;;12.60;99.90;;;;;;4996809;28;20179;-64
2023/12/26 03:46:35;;;;;;;0.85;0.25;;;12.50;99.90;;;;;;4997102;28;20175;-65
2023/12/26 03:49:01;;;;;;;0.30;0.20;;;12.50;99.90;;;;;;4997105;28;20293;-64
2023/12/26 03:51:28;;;;;;;0.20;0.20;;;12.40;99.90;;;;;;4997361;28;20274;-65
2023/12/26 03:53:54;;;;;;;0.47;0.20;;;12.40;99.90;;;;;;4996918;28;20175;-66
2023/12/26 03:56:20;;;;;;;0.57;0.38;;;12.30;99.90;;;;;;5013361;28;20249;-64
2023/12/26 03:58:48;;;;;;;0.32;0.32;;;12.30;99.90;;;;;;5013491;28;20203;-63
2023/12/26 04:01:16;;;;;;;0.15;0.15;;;12.30;99.90;;;;;;5013197;28;20183;-63
2023/12/26 04:03:44;;;;;;;0.20;0.20;;;12.20;99.90;;;;;;5013272;28;20178;-64
2023/12/26 04:06:12;;;;;;;0.80;0.20;;;12.20;99.90;;;;;;5013064;28;20171;-64
2023/12/26 04:08:37;;;;;;;0.65;0.20;;;12.20;99.90;;;;;;5010281;28;20219;-64
2023/12/26 04:11:08;;;;;;;0.45;0.20;;;12.20;99.90;;;;;;4990788;28;20172;-65
2023/12/26 04:13:36;;;;;;;0.20;0.20;;;12.20;99.90;;;;;;4993635;28;20203;-64
2023/12/26 04:16:02;;;;;;;0.45;0.20;;;12.20;99.90;;;;;;5005807;28;20198;-64
2023/12/26 04:18:28;;;;;;;0.20;0.20;;;12.20;99.90;;;;;;4996891;28;20262;-65
2023/12/26 04:20:56;;;;;;;0.22;0.20;;;12.20;99.90;;;;;;4996542;28;20175;-65
2023/12/26 04:23:23;;;;;;;0.43;0.20;;;12.20;99.90;;;;;;5012788;28;20175;-63
2023/12/26 04:25:50;;;;;;;0.65;0.20;;;12.20;99.90;;;;;;5012793;28;20286;-64
2023/12/26 04:28:15;;;;;;;0.73;0.20;;;12.20;99.90;;;;;;5007747;28;20172;-65
2023/12/26 04:30:41;;;;;;;0.17;0.10;;;12.20;99.90;;;;;;5004558;28;20202;-65
2023/12/26 04:33:07;;;;;;;0.30;0.22;;;12.20;99.90;;;;;;4996198;28;20171;-65
2023/12/26 04:35:36;;;;;;;0.25;0.10;;;12.30;99.90;;;;;;4996367;28;20237;-63
2023/12/26 04:38:03;;;;;;;0.10;0.10;;;12.30;99.90;;;;;;4996068;28;20295;-64
2023/12/26 04:40:29;;;;;;;0.43;0.10;;;12.30;99.90;;;;;;4996446;28;20186;-64
2023/12/26 04:42:54;;;;;;;0.17;0.13;;;12.30;99.90;;;;;;4996290;28;20290;-64
2023/12/26 04:45:22;;;;;;;0.30;0.10;;;12.40;99.90;;;;;;4996083;28;20179;-63
2023/12/26 04:47:50;;;;;;;0.25;0.20;;;12.40;99.90;;;;;;4991863;28;20263;-65
2023/12/26 04:50:16;;;;;;;0.57;0.30;;;12.40;99.90;;;;;;4999932;28;20245;-64
2023/12/26 04:52:42;;;;;;;0.25;0.10;;;12.50;99.90;;;;;;4995868;28;20400;-64
2023/12/26 04:55:08;;;;;;;0.17;0.17;;;12.50;99.90;;;;;;4995873;28;20191;-64
2023/12/26 04:57:36;;;;;;;0.10;0.10;;;12.50;99.90;;;;;;5001069;28;20180;-64
2023/12/26 05:00:02;;;;;;;0.30;0.20;;;12.50;99.90;;;;;;4995714;28;20203;-64
2023/12/26 05:02:30;;;;;;;0.10;0.10;;;12.50;99.90;;;;;;4995798;28;20235;-63
2023/12/26 05:04:56;;;;;;;0.00;0.00;;;12.50;99.90;;;;;;4995797;28;20203;-64
2023/12/26 05:07:21;;;;;;;0.10;0.10;;;12.60;99.90;;;;;;5011958;28;20214;-64
2023/12/26 05:09:48;;;;;;;0.10;0.10;;;12.60;99.90;;;;;;5011877;28;20210;-64
2023/12/26 05:12:14;;;;;;;0.10;0.10;;;12.60;99.90;;;;;;4995413;28;20191;-64
2023/12/26 05:14:39;;;;;;;0.10;0.10;;;12.70;99.90;;;;;;4995306;28;20178;-64
2023/12/26 05:17:05;;;;;;;0.10;0.10;;;12.70;99.90;;;;;;4991831;28;20191;-63
2023/12/26 05:19:33;;;;;;;0.10;0.10;;;12.70;99.90;;;;;;4992270;28;20176;-63
2023/12/26 05:21:59;;;;;;;0.10;0.10;;;12.70;99.90;;;;;;4992042;28;20263;-64
2023/12/26 05:24:24;;;;;;;0.10;0.05;;;12.70;99.90;;;;;;5008451;28;20226;-64
2023/12/26 05:26:50;;;;;;;0.20;0.10;;;12.80;99.90;;;;;;4995397;28;20175;-64
2023/12/26 05:29:20;;;;;;;0.05;0.05;;;12.80;99.90;;;;;;4995352;28;20210;-64
2023/12/26 05:31:46;;;;;;;0.22;0.20;;;12.80;99.90;;;;;;4995086;28;20230;-64
2023/12/26 05:34:15;;;;;;;0.80;0.50;;;12.80;99.90;;;;;;5011675;28;20176;-62
2023/12/26 05:36:40;;;;;;;0.30;0.30;;;12.80;99.90;;;;;;5010852;28;20181;-65
2023/12/26 05:39:09;;;;;;;0.22;0.20;;;12.90;99.90;;;;;;4994996;28;20282;-65
2023/12/26 05:41:37;;;;;;;0.10;0.10;;;12.90;99.90;;;;;;4995053;28;20207;-65
2023/12/26 05:44:02;;;;;;;0.32;0.10;;;12.90;99.90;;;;;;5011143;28;20274;-64
2023/12/26 05:46:32;;;;;;;0.15;0.10;;;12.90;99.90;;;;;;5011190;28;20278;-64
2023/12/26 05:48:58;;;;;;;0.35;0.13;;;12.90;99.90;;;;;;4995169;28;20299;-64
2023/12/26 05:51:24;;;;;;;0.28;0.28;;;12.90;99.90;;;;;;4994622;28;20254;-65
2023/12/26 05:53:49;;;;;;;0.20;0.20;;;12.90;99.90;;;;;;4994019;28;20179;-65
2023/12/26 05:56:18;;;;;;;0.10;0.10;;;12.90;99.90;;;;;;4994577;28;20176;-63
2023/12/26 05:58:46;;;;;;;0.15;0.15;;;12.90;99.90;;;;;;4994490;28;20265;-65
2023/12/26 06:01:12;;;;;;;1.48;0.30;;;12.90;99.90;;;;;;4995106;28;20199;-65
2023/12/26 06:03:38;;;;;;;0.28;0.17;;;12.90;99.90;;;;;;5011362;28;20225;-65
2023/12/26 06:06:14;;;;;;;0.40;0.30;;;12.80;99.90;;;;;;4994795;28;20186;-66
2023/12/26 06:08:40;;;;;;;0.22;0.20;;;12.80;99.90;;;;;;4994786;28;20171;-63
2023/12/26 06:11:08;;;;;;;0.75;0.30;;;12.80;99.90;;;;;;5009000;28;20186;-64
2023/12/26 06:13:36;;;;;;;0.35;0.30;;;12.70;99.90;;;;;;4991181;28;20179;-64
2023/12/26 06:16:05;;;;;;;0.30;0.20;;;12.70;99.90;;;;;;4991425;28;20203;-64
2023/12/26 06:18:31;;;;;;;0.10;0.10;;;12.70;99.90;;;;;;4994742;28;20194;-64
2023/12/26 06:20:56;;;;;;;0.40;0.20;;;12.60;99.90;;;;;;4994402;28;20199;-64
2023/12/26 06:23:27;;;;;;;0.25;0.25;;;12.60;99.90;;;;;;5011023;28;20414;-65
2023/12/26 06:25:54;;;;;;;0.70;0.20;;;12.60;99.90;;;;;;5010691;28;20172;-64
2023/12/26 06:28:20;;;;;;;0.40;0.30;;;12.50;99.90;;;;;;4990626;28;20351;-65
2023/12/26 06:30:46;;;;;;;0.20;0.20;;;12.50;99.90;;;;;;4990870;28;20191;-63
2023/12/26 06:33:11;;;;;;;0.50;0.30;;;12.50;99.90;;;;;;5008834;28;20281;-63
2023/12/26 06:35:38;;;;;;;0.45;0.25;;;12.50;99.90;;;;;;4994603;28;20389;-65
2023/12/26 06:38:11;;;;;;;1.08;0.30;;;12.50;99.90;;;;;;4994574;28;20168;-62
2023/12/26 06:40:38;;;;;;;0.50;0.30;;;12.50;99.90;;;;;;4994406;28;20175;-64
2023/12/26 06:43:06;;;;;;;0.50;0.28;;;12.60;99.90;;;;;;5010679;28;20206;-63
2023/12/26 06:45:31;;;;;;;0.73;0.40;;;12.60;99.90;;;;;;4994313;28;20472;-62
2023/12/26 06:47:57;;;;;;;0.70;0.40;;;12.60;99.90;;;;;;4993684;28;20221;-64
2023/12/26 06:50:22;;;;;;;0.65;0.45;;;12.60;99.90;;;;;;4993850;28;20215;-63
2023/12/26 06:52:48;;;;;;;1.00;0.35;;;12.60;99.90;;;;;;4994254;28;20186;-63
2023/12/26 06:55:14;;;;;;;0.90;0.57;;;12.60;99.90;;;;;;5010841;28;20171;-64
2023/12/26 06:57:39;;;;;;;0.38;0.30;;;12.60;99.90;;;;;;4994003;28;20171;-63
2023/12/26 07:00:06;;;;;;;0.85;0.40;;;12.60;99.90;;;;;;4992122;28;20176;-64
2023/12/26 07:02:32;;;;;;;0.68;0.47;;;12.60;99.90;;;;;;4995127;28;20214;-64
2023/12/26 07:04:58;;;;;;;0.73;0.40;;;12.70;99.90;;;;;;4997868;28;20180;-62
2023/12/26 07:07:24;;;;;;;1.00;0.60;;;12.70;99.90;;;;;;5013844;28;20345;-63
2023/12/26 07:09:49;;;;;;;0.60;0.47;;;12.70;99.90;;;;;;5014311;28;20207;-64
2023/12/26 07:12:15;;;;;;;0.30;0.30;;;12.70;99.90;;;;;;5014213;28;20186;-63
2023/12/26 07:14:40;;;;;;;1.63;0.40;;;12.70;99.90;;;;;;5014340;28;20283;-64
2023/12/26 07:17:06;;;;;;;0.90;0.40;;;12.70;99.90;;;;;;5062941;22;20229;-64
2023/12/26 07:19:32;;;;;;;0.57;0.40;;;12.70;99.90;;;;;;5037593;28;20201;-63
2023/12/26 07:22:03;;;;;;;1.33;0.57;;;12.60;99.90;;;;;;5020238;28;20201;-63
2023/12/26 07:24:28;;;;;;;1.05;0.50;;;12.60;99.90;;;;;;5020096;28;20191;-64
2023/12/26 07:26:56;;;;;;;1.95;0.55;;;12.60;99.90;;;;;;5013808;28;20242;-65
2023/12/26 07:29:27;;;;;;;0.95;0.43;;;12.60;99.90;;;;;;5001444;28;20202;-64
2023/12/26 07:31:52;;;;;;;0.88;0.52;;;12.50;99.90;;;;;;5020052;28;20194;-64
2023/12/26 07:34:18;;;;;;;1.48;0.50;;;12.50;99.90;;;;;;5020250;28;20205;-64
2023/12/26 07:36:44;;;;;;;0.63;0.38;;;12.50;99.90;;;;;;5019862;28;20202;-63
2023/12/26 07:39:14;;;;;;;0.93;0.77;;;12.50;99.90;;;;;;5020578;28;20178;-65
2023/12/26 07:41:40;;;;;;;1.58;0.70;;;12.50;99.90;;;;;;5019720;28;20178;-64
2023/12/26 07:44:05;;;;;;;1.38;0.60;;;12.50;99.90;;;;;;5020165;28;20178;-64
2023/12/26 07:46:31;;;;;;;1.35;0.52;;;12.50;99.90;;;;;;5020189;28;20222;-65
2023/12/26 07:48:57;;;;;;;1.30;0.60;;;12.50;99.90;;;;;;5020118;28;20202;-64
2023/12/26 07:51:24;;;;;;;1.52;0.68;;;12.50;99.90;;;;;;5002924;28;20238;-62
2023/12/26 07:53:49;;;;;;;0.98;0.60;;;12.50;99.90;;;;;;5015223;28;20185;-63
2023/12/26 07:56:15;;;;;;;1.02;0.55;;;12.50;99.90;;;;;;5019835;28;20166;-62
2023/12/26 07:58:41;;;;;;;1.55;0.70;;;12.50;99.90;;;;;;5019885;28;20174;-62
2023/12/26 08:01:06;;;;;;;1.75;0.77;;;12.50;99.90;;;;;;5019232;28;20201;-62
2023/12/26 08:03:34;;;;;;;2.05;0.68;;;12.50;99.90;;;;;;5019623;28;20174;-62
2023/12/26 08:06:00;;;;;;;2.22;0.70;;;12.50;99.90;;;;;;5019387;28;20189;-63
2023/12/26 08:08:26;;;;;;;1.42;0.70;;;12.50;99.90;;;;;;5036927;28;20177;-63
2023/12/26 08:10:51;;;;;;;1.40;0.60;;;12.50;99.90;;;;;;5019416;28;20194;-63
2023/12/26 08:13:17;;;;;;;1.55;0.70;;;12.50;99.90;;;;;;5019631;28;20170;-63
2023/12/26 08:15:43;;;;;;;3.13;0.70;;;12.50;99.90;;;;;;5018935;28;20172;-63
2023/12/26 08:18:10;;;;;;;1.83;0.70;;;12.50;99.90;;;;;;5017332;28;20296;-63
2023/12/26 08:20:39;;;;;;;3.17;0.77;;;12.50;99.90;;;;;;5019464;28;20355;-63
2023/12/26 08:23:04;;;;;;;2.03;0.70;;;12.50;99.90;;;;;;5019200;28;20205;-63
2023/12/26 08:25:33;;;;;;;2.78;0.80;;;12.50;99.90;;;;;;5015499;28;20171;-63
2023/12/26 08:28:01;;;;;;;1.23;0.63;;;12.50;99.90;;;;;;5015661;28;20533;-63
2023/12/26 08:30:26;;;;;;;1.50;0.73;;;12.50;99.90;;;;;;5014875;28;20191;-68
2023/12/26 08:32:56;;;;;;;3.17;0.90;;;12.50;99.90;;;;;;4999823;28;20243;-69
2023/12/26 08:35:24;;;;;;;1.33;0.65;;;12.50;99.90;;;;;;5000833;28;20198;-69
2023/12/26 08:37:50;;;;;;;1.00;0.75;;;12.50;99.90;;;;;;5019309;28;20181;-68
2023/12/26 08:40:18;;;;;;;2.58;0.73;;;12.60;99.90;;;;;;5018718;28;20204;-68
2023/12/26 08:42:47;;;;;;;2.08;0.70;;;12.60;99.90;;;;;;5019064;28;20232;-68
2023/12/26 08:45:15;;;;;;;2.65;0.90;;;12.60;99.90;;;;;;5004962;28;20179;-68
2023/12/26 08:47:40;;;;;;;1.65;0.73;;;12.60;99.90;;;;;;4998780;28;20195;-68
2023/12/26 08:50:06;;;;;;;2.33;0.70;;;12.60;99.90;;;;;;4999281;28;20222;-67
2023/12/26 08:52:35;;;;;;;1.05;0.70;;;12.60;99.90;;;;;;4998934;28;20201;-68
2023/12/26 08:55:00;;;;;;;1.35;0.70;;;12.60;99.90;;;;;;5010632;28;20184;-69
2023/12/26 08:57:26;;;;;;;2.28;0.95;;;12.60;99.90;;;;;;5018488;28;20182;-68
2023/12/26 08:59:51;;;;;;;1.98;0.80;;;12.60;99.90;;;;;;5018458;28;20181;-68
2023/12/26 09:02:19;;;;;;;1.90;0.90;;;12.60;99.90;;;;;;5018047;28;20192;-68
2023/12/26 09:04:46;;;;;;;2.65;0.95;;;12.60;99.90;;;;;;5018273;28;20284;-70
2023/12/26 09:07:11;;;;;;;4.13;0.70;;;12.60;99.90;;;;;;5018418;28;20184;-68
2023/12/26 09:09:37;;;;;;;2.10;1.00;;;12.60;99.90;;;;;;5020828;28;20190;-69
2023/12/26 09:12:03;;;;;;;2.03;1.08;;;12.60;99.90;;;;;;5018727;28;20269;-69
2023/12/26 09:14:29;;;;;;;1.65;0.90;;;12.70;99.90;;;;;;5035785;28;20205;-68
2023/12/26 09:16:54;;;;;;;2.13;0.80;;;12.70;99.90;;;;;;5018258;28;20402;-68
2023/12/26 09:19:20;;;;;;;1.98;0.80;;;12.70;99.90;;;;;;5019063;28;20181;-68
2023/12/26 09:21:46;;;;;;;1.67;0.80;;;12.70;99.90;;;;;;5016557;28;20205;-68
2023/12/26 09:24:11;;;;;;;2.53;0.73;;;12.80;99.90;;;;;;5018216;28;20178;-66
2023/12/26 09:26:40;;;;;;;1.42;0.77;;;12.80;99.90;;;;;;5000431;28;20178;-68
2023/12/26 09:29:05;;;;;;;1.40;0.80;;;12.80;99.90;;;;;;4998539;28;20194;-68
2023/12/26 09:31:33;;;;;;;1.50;0.75;;;12.80;99.90;;;;;;5011222;28;20177;-68
2023/12/26 09:34:06;;;;;;;4.20;1.25;;;12.80;99.90;;;;;;5014596;28;20195;-68
2023/12/26 09:36:36;;;;;;;3.45;1.38;;;12.80;99.90;;;;;;4998574;28;20170;-68
2023/12/26 09:39:04;;;;;;;2.65;0.90;;;12.90;99.90;;;;;;4998276;28;20209;-67
2023/12/26 09:41:30;;;;;;;3.28;1.00;;;12.90;99.90;;;;;;5018360;28;20243;-68
2023/12/26 09:43:56;;;;;;;1.48;0.80;;;12.90;99.90;;;;;;5037232;28;20374;-68
2023/12/26 09:46:22;;;;;;;2.15;0.88;;;12.90;99.90;;;;;;5017736;28;20264;-68
2023/12/26 09:48:48;;;;;;;3.00;0.90;;;12.90;99.90;;;;;;5008597;28;20270;-68
2023/12/26 09:51:22;;;;;;;2.75;0.90;;;12.90;99.90;;;;;;5030079;28;20266;-69
2023/12/26 09:53:57;;;;;;;2.22;0.95;;;12.90;99.90;;;;;;5003140;28;20228;-68
2023/12/26 09:56:28;;;;;;;2.30;1.05;;;12.90;99.90;;;;;;5012252;28;20201;-69
2023/12/26 09:59:01;;;;;;;1.17;0.68;;;12.90;99.90;;;;;;5008697;28;20182;-69
2023/12/26 10:01:29;;;;;;;3.15;0.95;;;12.90;99.90;;;;;;5001128;28;20169;-68
2023/12/26 10:03:56;;;;;;;1.80;0.80;;;12.90;99.90;;;;;;5017798;28;20170;-68
2023/12/26 10:06:22;;;;;;;4.35;1.10;;;12.90;99.90;;;;;;5017511;28;20166;-68
2023/12/26 10:08:50;;;;;;;3.08;0.80;;;12.90;99.90;;;;;;5012304;28;20195;-68
2023/12/26 10:11:16;;;;;;;3.45;1.00;;;13.00;99.90;;;;;;5015379;28;20269;-69
2023/12/26 10:13:50;;;;;;;1.85;0.80;;;13.00;99.90;;;;;;5000704;28;20261;-67
2023/12/26 10:16:17;;;;;;;2.67;0.90;;;13.10;99.90;;;;;;4998273;28;20173;-68
2023/12/26 10:18:42;;;;;;;2.15;0.73;;;13.20;99.90;;;;;;4998092;28;20186;-68
2023/12/26 10:21:08;;;;;;;2.63;0.88;;;13.30;99.90;;;;;;5016428;28;20194;-69
2023/12/26 10:23:34;;;;;;;3.90;1.05;;;13.40;99.90;;;;;;5034567;28;20170;-69
2023/12/26 10:26:03;;;;;;;1.50;0.82;;;13.50;99.90;;;;;;5017385;28;20240;-69
2023/12/26 10:28:35;;;;;;;2.10;0.98;;;13.70;99.90;;;;;;5017079;28;20259;-69
2023/12/26 10:31:17;;;;;;;2.28;0.90;;;13.80;99.90;;;;;;5023606;28;20193;-68
2023/12/26 10:33:43;;;;;;;3.42;0.90;;;13.90;99.90;;;;;;5037601;28;20172;-69
2023/12/26 10:36:12;;;;;;;3.90;1.30;;;14.00;99.90;;;;;;5013739;28;20175;-68
2023/12/26 10:38:42;;;;;;;3.33;1.00;;;14.10;99.90;;;;;;4999969;28;20175;-69
2023/12/26 10:41:18;;;;;;;1.60;0.85;;;14.10;99.90;;;;;;5003763;28;20181;-69
2023/12/26 10:43:46;;;;;;;4.82;1.15;;;14.00;99.90;;;;;;5020874;28;20282;-69
2023/12/26 10:46:16;;;;;;;2.53;0.90;;;14.00;99.90;;;;;;5021192;28;20542;-69
2023/12/26 10:48:48;;;;;;;2.75;0.80;;;14.00;99.90;;;;;;5021163;28;20188;-69
2023/12/26 10:51:17;;;;;;;2.33;0.65;;;14.00;99.90;;;;;;5021427;28;20181;-69
2023/12/26 10:53:50;;;;;;;3.15;0.88;;;14.00;99.90;;;;;;5003327;28;20171;-68
2023/12/26 10:56:19;;;;;;;4.55;1.20;;;14.00;99.90;;;;;;5020531;28;20194;-68
2023/12/26 10:58:46;;;;;;;4.47;0.90;;;14.00;99.90;;;;;;5020898;28;20174;-68
2023/12/26 13:52:10;;;;;;;3.33;1.13;;;12.80;99.90;;;;;;5055275;28;20296;-68
2023/12/26 13:54:38;;;;;;;5.32;1.45;;;12.80;99.90;;;;;;5054025;28;20208;-69
2023/12/26 13:57:03;;;;;;;6.60;1.30;;;12.70;99.90;;;;;;5048267;28;20440;-69
2023/12/26 13:59:31;;;;;;;6.90;1.40;;;12.60;99.90;;;;;;5073538;28;20181;-68
2023/12/26 14:01:57;;;;;;;4.95;1.10;;;12.50;99.90;;;;;;5053229;28;20204;-69
2023/12/26 14:04:22;;;;;;;4.05;1.30;;;12.50;99.90;;;;;;5054008;28;20267;-69
2023/12/26 14:06:51;;;;;;;3.53;1.40;;;12.40;99.90;;;;;;5053375;28;20241;-68
2023/12/26 14:09:17;;;;;;;4.10;1.33;;;12.40;99.90;;;;;;5053921;28;20204;-68
2023/12/26 14:11:45;;;;;;;4.28;1.40;;;12.30;99.90;;;;;;5053951;28;20177;-69
2023/12/26 14:14:13;;;;;;;5.25;1.35;;;12.30;99.90;;;;;;5051016;28;20366;-68
2023/12/26 14:16:43;;;;;;;5.43;1.40;;;12.30;99.90;;;;;;5034023;28;20322;-70
2023/12/26 14:19:11;;;;;;;3.50;1.40;;;12.20;99.90;;;;;;5034103;28;20256;-69
2023/12/26 14:21:36;;;;;;;4.07;1.25;;;12.20;99.90;;;;;;5039785;28;20260;-71
2023/12/26 14:24:06;;;;;;;4.70;1.20;;;12.30;99.90;;;;;;5053451;28;20327;-69
2023/12/26 14:26:34;;;;;;;6.40;1.30;;;12.20;99.90;;;;;;5053679;28;20219;-69
2023/12/26 14:29:02;;;;;;;3.40;1.00;;;12.20;99.90;;;;;;5053805;28;20179;-70
2023/12/26 14:31:30;;;;;;;3.90;1.10;;;12.20;99.90;;;;;;5053662;28;20199;-69
2023/12/26 14:33:56;;;;;;;4.72;1.20;;;12.20;99.90;;;;;;5053793;28;20161;-69
2023/12/26 14:36:21;;;;;;;3.15;1.05;;;12.20;99.90;;;;;;5053777;28;20265;-70
2023/12/26 14:38:47;;;;;;;4.85;1.40;;;12.10;99.90;;;;;;5053656;28;20230;-69
2023/12/26 14:41:12;;;;;;;3.95;1.35;;;12.10;99.90;;;;;;5053575;28;20187;-69
2023/12/26 14:43:38;;;;;;;4.75;1.20;;;12.10;99.90;;;;;;5049868;28;20255;-70
2023/12/26 14:46:03;;;;;;;3.05;0.98;;;12.10;99.90;;;;;;5053171;28;20200;-70
2023/12/26 14:48:31;;;;;;;3.15;1.10;;;12.10;99.90;;;;;;5053611;28;20178;-69
2023/12/26 14:50:59;;;;;;;5.25;1.52;;;12.10;99.90;;;;;;5053461;28;20201;-70
2023/12/26 14:53:27;;;;;;;3.33;1.20;;;12.00;99.90;;;;;;5053737;28;20169;-69
2023/12/26 14:55:52;;;;;;;4.82;1.45;;;12.00;99.90;;;;;;5053466;28;20197;-70
2023/12/26 14:58:20;;;;;;;3.75;1.20;;;11.90;99.90;;;;;;5053293;28;20409;-69
2023/12/26 15:00:46;;;;;;;3.28;1.38;;;12.00;99.90;;;;;;5052364;28;20213;-70
2023/12/26 15:03:11;;;;;;;4.18;1.20;;;11.90;99.90;;;;;;5053507;28;20173;-70
2023/12/26 15:05:37;;;;;;;4.22;1.33;;;11.90;99.90;;;;;;5053436;28;20265;-70
2023/12/26 15:08:03;;;;;;;4.18;1.20;;;11.90;99.90;;;;;;5062656;28;20279;-69
2023/12/26 15:10:34;;;;;;;3.67;1.20;;;11.90;99.90;;;;;;5061507;28;20193;-70
2023/12/26 15:13:01;;;;;;;3.13;1.10;;;11.80;99.90;;;;;;5053156;28;20197;-69
2023/12/26 15:15:26;;;;;;;5.32;1.60;;;11.80;99.90;;;;;;5053579;28;20174;-69
2023/12/26 15:17:52;;;;;;;2.75;1.30;;;11.70;99.90;;;;;;5053168;28;20193;-70
2023/12/26 15:20:18;;;;;;;2.33;1.00;;;11.70;99.90;;;;;;5053236;28;20169;-70
2023/12/26 15:22:46;;;;;;;5.05;1.65;;;11.70;99.90;;;;;;5053049;28;20193;-70
2023/12/26 15:25:12;;;;;;;3.63;1.00;;;11.70;99.90;;;;;;5050258;28;20206;-69
2023/12/26 15:27:38;;;;;;;4.60;1.30;;;11.60;99.90;;;;;;5056773;28;20276;-70
2023/12/26 15:30:04;;;;;;;3.80;1.20;;;11.60;99.90;;;;;;5056672;28;20209;-68
2023/12/26 15:32:32;;;;;;;3.45;1.30;;;11.60;99.90;;;;;;5056929;28;20394;-68
2023/12/26 15:35:01;;;;;;;4.88;1.10;;;11.60;99.90;;;;;;5056861;28;20268;-68
2023/12/26 15:37:27;;;;;;;5.50;1.17;;;11.50;99.90;;;;;;5057072;28;20183;-69